Aegean Orion — SVA2487 — position and weather

sailwx.info

Track history (hours):
 
Tides and Currents Weather Stations Pressure Air Temp Water Temp Dewpoint Dewpoint Depression Visibility Wind Speed Wind Dir Waves Ship Positions

Aegean Orion

Last reported at 2017-May-23 16:32 UTC. Time now 2017-May-23 17:04 UTC.
Position N 38°02' E 023°32'.

; draft 2.4 m.

Type: Ship. MMSI: 239550200.

Date/timePositionNaut miles runAvg speedWind from/ knotsBaromVisibWave heightAir tempDewpointWater temp
2017-May-23 16:32N 38°02' E 023°32'0 0.0
2017-May-23 16:30N 38°02' E 023°32'1 2.1
2017-May-23 16:01N 38°02' E 023°31'0 0.1
2017-May-23 15:31N 38°02' E 023°31'0 0.0
2017-May-23 15:00N 38°02' E 023°31'0 0.0
2017-May-23 14:31N 38°02' E 023°31'0 0.0
2017-May-23 13:30N 38°02' E 023°31'0 0.0
2017-May-23 13:01N 38°02' E 023°31'0 0.9
2017-May-23 12:30N 38°02' E 023°31'0 0.0
2017-May-23 12:01N 38°02' E 023°31'0 0.1
2017-May-23 11:30N 38°02' E 023°31'0 0.0
2017-May-23 11:00N 38°02' E 023°31'1 2.3
2017-May-23 10:30N 38°01' E 023°32'4 7.7
2017-May-23 10:00N 37°57' E 023°34'3 5.8
2017-May-23 09:30N 37°56' E 023°37'0 0.0
2017-May-23 09:00N 37°56' E 023°37'0 0.0
2017-May-23 08:30N 37°56' E 023°37'0 0.0
2017-May-23 08:00N 37°56' E 023°37'0 0.1
2017-May-23 07:31N 37°56' E 023°37'3 6.1
2017-May-23 07:00N 37°57' E 023°34'4 7.4
2017-May-23 06:30N 38°01' E 023°32'2 3.1
2017-May-23 06:00N 38°02' E 023°32'0 0.0
2017-May-23 05:30N 38°02' E 023°32'0 0.0
2017-May-23 05:00N 38°02' E 023°32'0 0.0
2017-May-22 09:13N 38°02' E 023°32'1 2.6
2017-May-22 09:01N 38°02' E 023°31'1 1.0
2017-May-22 08:30N 38°02' E 023°31'0 0.0
2017-May-22 08:01N 38°02' E 023°31'0 0.0
2017-May-22 07:30N 38°02' E 023°31'0 0.0
2017-May-22 07:00N 38°02' E 023°31'0 0.0
2017-May-22 06:30N 38°02' E 023°31'0 0.0
2017-May-22 06:00N 38°02' E 023°31'0 0.0
2017-May-22 05:30N 38°02' E 023°31'0 0.0
2017-May-22 05:00N 38°02' E 023°31'0 0.7
2017-May-22 04:30N 38°02' E 023°31'1 1.9
2017-May-22 04:00N 38°02' E 023°32'0 0.0
2017-May-21 04:41N 38°02' E 023°32'0 0.3
2017-May-21 04:31N 38°02' E 023°32'4 7.5
2017-May-21 04:00N 37°59' E 023°33'2 3.4
2017-May-21 03:30N 37°57' E 023°34'0 0.0
2017-May-21 03:01N 37°57' E 023°34'0 0.0
2017-May-21 02:31N 37°57' E 023°34'0 0.0
2017-May-21 02:00N 37°57' E 023°34'0 0.0
2017-May-21 01:30N 37°57' E 023°34'0 0.0
2017-May-21 01:01N 37°57' E 023°34'0 0.0
2017-May-21 00:31N 37°57' E 023°34'0 0.0
2017-May-21 00:00N 37°57' E 023°34'0 0.0
2017-May-20 23:31N 37°57' E 023°34'0 0.0
2017-May-20 23:00N 37°57' E 023°34'1 1.2
2017-May-20 22:30N 37°57' E 023°35'3 5.6
2017-May-20 22:00N 37°57' E 023°38'0 0.0
2017-May-20 21:30N 37°57' E 023°38'0 0.0
2017-May-20 21:00N 37°57' E 023°38'1 1.2
2017-May-20 20:30N 37°56' E 023°38'2 4.2
2017-May-20 20:00N 37°57' E 023°35'1 2.0
2017-May-20 19:30N 37°57' E 023°34'0 0.0
2017-May-20 19:00N 37°57' E 023°34'0 0.0
2017-May-20 18:30N 37°57' E 023°34'0 0.0
2017-May-20 18:00N 37°57' E 023°34'0 0.0
2017-May-20 17:30N 37°57' E 023°34'1 2.3
2017-May-20 17:01N 37°58' E 023°33'4 7.8
2017-May-20 16:30N 38°02' E 023°32'0 0.9
2017-May-20 16:00N 38°02' E 023°32'0 0.0
2017-May-20 15:30N 38°02' E 023°32'0 0.0
2017-May-20 15:01N 38°02' E 023°32'0 0.0
2017-May-19 12:41N 38°02' E 023°32'0 0.6
2017-May-19 12:31N 38°02' E 023°32'3 5.4
2017-May-19 12:00N 38°02' E 023°35'0 0.0
2017-May-19 11:30N 38°02' E 023°35'0 0.0
2017-May-19 11:00N 38°02' E 023°35'0 0.0
2017-May-19 10:30N 38°02' E 023°35'0 0.0
2017-May-19 10:00N 38°02' E 023°35'3 0.1
2017-May-18 12:41N 38°02' E 023°32'0 1.6
2017-May-18 12:30N 38°02' E 023°32'4 7.6
2017-May-18 12:00N 37°58' E 023°33'4 7.2
2017-May-18 11:30N 37°56' E 023°37'1 2.8
2017-May-18 11:00N 37°57' E 023°38'0 0.0
2017-May-18 10:31N 37°57' E 023°38'0 0.0
2017-May-18 10:00N 37°57' E 023°38'1 1.8
2017-May-18 09:30N 37°56' E 023°37'0 0.1
2017-May-18 09:01N 37°56' E 023°37'0 0.0
2017-May-18 08:30N 37°56' E 023°37'0 0.0
2017-May-18 08:01N 37°56' E 023°37'0 0.0
2017-May-18 07:31N 37°56' E 023°37'0 0.0
2017-May-18 07:00N 37°56' E 023°37'0 0.4
2017-May-18 06:31N 37°56' E 023°37'3 6.9
2017-May-18 06:00N 37°57' E 023°33'4 7.6
2017-May-18 05:31N 38°01' E 023°32'1 0.1
2017-May-17 12:32N 38°02' E 023°32'0 0.2
2017-May-17 12:30N 38°02' E 023°32'2 4.4
2017-May-17 12:01N 38°02' E 023°35'0 0.9
2017-May-17 11:30N 38°02' E 023°35'0 0.0
2017-May-17 10:59N 38°02' E 023°35'0 0.0
2017-May-17 10:30N 38°02' E 023°35'0 0.0
2017-May-17 10:00N 38°02' E 023°35'0 0.0
2017-May-17 09:30N 38°02' E 023°35'1 2.3
2017-May-17 09:00N 38°01' E 023°34'3 6.9
2017-May-17 08:30N 37°58' E 023°33'3 6.2
2017-May-17 08:01N 37°57' E 023°36'1 2.3
2017-May-17 07:30N 37°56' E 023°38'0 0.0
2017-May-17 07:01N 37°56' E 023°38'0 0.0
2017-May-17 06:30N 37°56' E 023°38'0 0.0
2017-May-17 06:00N 37°56' E 023°38'0 0.0
2017-May-17 05:31N 37°56' E 023°38'0 0.0
2017-May-17 05:00N 37°56' E 023°38'0 0.6
2017-May-17 04:30N 37°56' E 023°38'4 7.5
2017-May-17 04:01N 37°57' E 023°33'4 7.8
2017-May-17 03:30N 38°01' E 023°32'1 0.1
2017-May-16 15:38N 38°02' E 023°32'0 0.3
2017-May-16 15:30N 38°02' E 023°32'1 2.0
2017-May-16 15:00N 38°02' E 023°31'0 0.0
2017-May-16 14:00N 38°02' E 023°31'0 0.0
2017-May-16 13:30N 38°02' E 023°31'0 0.1
2017-May-16 13:00N 38°02' E 023°31'1 1.9
2017-May-16 12:30N 38°01' E 023°31'3 6.9
2017-May-16 12:00N 37°58' E 023°33'4 7.2
2017-May-16 11:30N 37°56' E 023°37'1 2.8
2017-May-16 11:00N 37°57' E 023°38'0 0.0
2017-May-16 10:30N 37°57' E 023°38'0 0.0
2017-May-16 10:00N 37°57' E 023°38'1 2.3
2017-May-16 09:30N 37°56' E 023°37'3 6.4
2017-May-16 09:00N 37°57' E 023°33'4 7.6
2017-May-16 08:30N 38°01' E 023°32'1 2.6
2017-May-16 08:00N 38°02' E 023°32'0 0.0
2017-May-16 07:30N 38°02' E 023°32'0 0.0
2017-May-16 07:00N 38°02' E 023°32'0 0.0
2017-May-16 06:30N 38°02' E 023°32'0 0.0
2017-May-16 06:00N 38°02' E 023°32'0 0.0
2017-May-16 05:30N 38°02' E 023°32'0 0.0
2017-May-16 04:58N 38°02' E 023°32'0 0.0
2017-May-16 04:29N 38°02' E 023°32'0 0.0
2017-May-15 11:10N 38°02' E 023°32'0 0.0
2017-May-15 11:00N 38°02' E 023°32'0 0.0
2017-May-15 10:30N 38°02' E 023°32'1 2.9
2017-May-15 10:00N 38°02' E 023°34'1 2.5
2017-May-15 09:30N 38°02' E 023°35'0 0.0
2017-May-15 09:00N 38°02' E 023°35'0 0.0
2017-May-15 08:29N 38°02' E 023°35'0 0.0
2017-May-15 07:56N 38°02' E 023°35'0 0.0
2017-May-15 07:30N 38°02' E 023°35'  
Track history (hours):
 
Tides and Currents Weather Stations Pressure Air Temp Water Temp Dewpoint Dewpoint Depression Visibility Wind Speed Wind Dir Waves Ship Positions

Aegean Orion

Last reported at 2017-May-23 16:32 UTC. Time now 2017-May-23 17:04 UTC.
Position N 38°02' E 023°32'.

; draft 2.4 m.

Type: Ship. MMSI: 239550200.

Date/timePositionNaut miles runAvg speedWind from/ knotsBaromVisibWave heightAir tempDewpointWater temp
2017-May-23 16:32N 38°02' E 023°32'0 0.0
2017-May-23 16:30N 38°02' E 023°32'1 2.1
2017-May-23 16:01N 38°02' E 023°31'0 0.1
2017-May-23 15:31N 38°02' E 023°31'0 0.0
2017-May-23 15:00N 38°02' E 023°31'0 0.0
2017-May-23 14:31N 38°02' E 023°31'0 0.0
2017-May-23 13:30N 38°02' E 023°31'0 0.0
2017-May-23 13:01N 38°02' E 023°31'0 0.9
2017-May-23 12:30N 38°02' E 023°31'0 0.0
2017-May-23 12:01N 38°02' E 023°31'0 0.1
2017-May-23 11:30N 38°02' E 023°31'0 0.0
2017-May-23 11:00N 38°02' E 023°31'1 2.3
2017-May-23 10:30N 38°01' E 023°32'4 7.7
2017-May-23 10:00N 37°57' E 023°34'3 5.8
2017-May-23 09:30N 37°56' E 023°37'0 0.0
2017-May-23 09:00N 37°56' E 023°37'0 0.0
2017-May-23 08:30N 37°56' E 023°37'0 0.0
2017-May-23 08:00N 37°56' E 023°37'0 0.1
2017-May-23 07:31N 37°56' E 023°37'3 6.1
2017-May-23 07:00N 37°57' E 023°34'4 7.4
2017-May-23 06:30N 38°01' E 023°32'2 3.1
2017-May-23 06:00N 38°02' E 023°32'0 0.0
2017-May-23 05:30N 38°02' E 023°32'0 0.0
2017-May-23 05:00N 38°02' E 023°32'0 0.0
2017-May-22 09:13N 38°02' E 023°32'1 2.6
2017-May-22 09:01N 38°02' E 023°31'1 1.0
2017-May-22 08:30N 38°02' E 023°31'0 0.0
2017-May-22 08:01N 38°02' E 023°31'0 0.0
2017-May-22 07:30N 38°02' E 023°31'0 0.0
2017-May-22 07:00N 38°02' E 023°31'0 0.0
2017-May-22 06:30N 38°02' E 023°31'0 0.0
2017-May-22 06:00N 38°02' E 023°31'0 0.0
2017-May-22 05:30N 38°02' E 023°31'0 0.0
2017-May-22 05:00N 38°02' E 023°31'0 0.7
2017-May-22 04:30N 38°02' E 023°31'1 1.9
2017-May-22 04:00N 38°02' E 023°32'0 0.0
2017-May-21 04:41N 38°02' E 023°32'0 0.3
2017-May-21 04:31N 38°02' E 023°32'4 7.5
2017-May-21 04:00N 37°59' E 023°33'2 3.4
2017-May-21 03:30N 37°57' E 023°34'0 0.0
2017-May-21 03:01N 37°57' E 023°34'0 0.0
2017-May-21 02:31N 37°57' E 023°34'0 0.0
2017-May-21 02:00N 37°57' E 023°34'0 0.0
2017-May-21 01:30N 37°57' E 023°34'0 0.0
2017-May-21 01:01N 37°57' E 023°34'0 0.0
2017-May-21 00:31N 37°57' E 023°34'0 0.0
2017-May-21 00:00N 37°57' E 023°34'0 0.0
2017-May-20 23:31N 37°57' E 023°34'0 0.0
2017-May-20 23:00N 37°57' E 023°34'1 1.2
2017-May-20 22:30N 37°57' E 023°35'3 5.6
2017-May-20 22:00N 37°57' E 023°38'0 0.0
2017-May-20 21:30N 37°57' E 023°38'0 0.0
2017-May-20 21:00N 37°57' E 023°38'1 1.2
2017-May-20 20:30N 37°56' E 023°38'2 4.2
2017-May-20 20:00N 37°57' E 023°35'1 2.0
2017-May-20 19:30N 37°57' E 023°34'0 0.0
2017-May-20 19:00N 37°57' E 023°34'0 0.0
2017-May-20 18:30N 37°57' E 023°34'0 0.0
2017-May-20 18:00N 37°57' E 023°34'0 0.0
2017-May-20 17:30N 37°57' E 023°34'1 2.3
2017-May-20 17:01N 37°58' E 023°33'4 7.8
2017-May-20 16:30N 38°02' E 023°32'0 0.9
2017-May-20 16:00N 38°02' E 023°32'0 0.0
2017-May-20 15:30N 38°02' E 023°32'0 0.0
2017-May-20 15:01N 38°02' E 023°32'0 0.0
2017-May-19 12:41N 38°02' E 023°32'0 0.6
2017-May-19 12:31N 38°02' E 023°32'3 5.4
2017-May-19 12:00N 38°02' E 023°35'0 0.0
2017-May-19 11:30N 38°02' E 023°35'0 0.0
2017-May-19 11:00N 38°02' E 023°35'0 0.0
2017-May-19 10:30N 38°02' E 023°35'0 0.0
2017-May-19 10:00N 38°02' E 023°35'3 0.1
2017-May-18 12:41N 38°02' E 023°32'0 1.6
2017-May-18 12:30N 38°02' E 023°32'4 7.6
2017-May-18 12:00N 37°58' E 023°33'4 7.2
2017-May-18 11:30N 37°56' E 023°37'1 2.8
2017-May-18 11:00N 37°57' E 023°38'0 0.0
2017-May-18 10:31N 37°57' E 023°38'0 0.0
2017-May-18 10:00N 37°57' E 023°38'1 1.8
2017-May-18 09:30N 37°56' E 023°37'0 0.1
2017-May-18 09:01N 37°56' E 023°37'0 0.0
2017-May-18 08:30N 37°56' E 023°37'0 0.0
2017-May-18 08:01N 37°56' E 023°37'0 0.0
2017-May-18 07:31N 37°56' E 023°37'0 0.0
2017-May-18 07:00N 37°56' E 023°37'0 0.4
2017-May-18 06:31N 37°56' E 023°37'3 6.9
2017-May-18 06:00N 37°57' E 023°33'4 7.6
2017-May-18 05:31N 38°01' E 023°32'1 0.1
2017-May-17 12:32N 38°02' E 023°32'0 0.2
2017-May-17 12:30N 38°02' E 023°32'2 4.4
2017-May-17 12:01N 38°02' E 023°35'0 0.9
2017-May-17 11:30N 38°02' E 023°35'0 0.0
2017-May-17 10:59N 38°02' E 023°35'0 0.0
2017-May-17 10:30N 38°02' E 023°35'0 0.0
2017-May-17 10:00N 38°02' E 023°35'0 0.0
2017-May-17 09:30N 38°02' E 023°35'1 2.3
2017-May-17 09:00N 38°01' E 023°34'3 6.9
2017-May-17 08:30N 37°58' E 023°33'3 6.2
2017-May-17 08:01N 37°57' E 023°36'1 2.3
2017-May-17 07:30N 37°56' E 023°38'0 0.0
2017-May-17 07:01N 37°56' E 023°38'0 0.0
2017-May-17 06:30N 37°56' E 023°38'0 0.0
2017-May-17 06:00N 37°56' E 023°38'0 0.0
2017-May-17 05:31N 37°56' E 023°38'0 0.0
2017-May-17 05:00N 37°56' E 023°38'0 0.6
2017-May-17 04:30N 37°56' E 023°38'4 7.5
2017-May-17 04:01N 37°57' E 023°33'4 7.8
2017-May-17 03:30N 38°01' E 023°32'1 0.1
2017-May-16 15:38N 38°02' E 023°32'0 0.3
2017-May-16 15:30N 38°02' E 023°32'1 2.0
2017-May-16 15:00N 38°02' E 023°31'0 0.0
2017-May-16 14:00N 38°02' E 023°31'0 0.0
2017-May-16 13:30N 38°02' E 023°31'0 0.1
2017-May-16 13:00N 38°02' E 023°31'1 1.9
2017-May-16 12:30N 38°01' E 023°31'3 6.9
2017-May-16 12:00N 37°58' E 023°33'4 7.2
2017-May-16 11:30N 37°56' E 023°37'1 2.8
2017-May-16 11:00N 37°57' E 023°38'0 0.0
2017-May-16 10:30N 37°57' E 023°38'0 0.0
2017-May-16 10:00N 37°57' E 023°38'1 2.3
2017-May-16 09:30N 37°56' E 023°37'3 6.4
2017-May-16 09:00N 37°57' E 023°33'4 7.6
2017-May-16 08:30N 38°01' E 023°32'1 2.6
2017-May-16 08:00N 38°02' E 023°32'0 0.0
2017-May-16 07:30N 38°02' E 023°32'0 0.0
2017-May-16 07:00N 38°02' E 023°32'0 0.0
2017-May-16 06:30N 38°02' E 023°32'0 0.0
2017-May-16 06:00N 38°02' E 023°32'0 0.0
2017-May-16 05:30N 38°02' E 023°32'0 0.0
2017-May-16 04:58N 38°02' E 023°32'0 0.0
2017-May-16 04:29N 38°02' E 023°32'0 0.0
2017-May-15 11:10N 38°02' E 023°32'0 0.0
2017-May-15 11:00N 38°02' E 023°32'0 0.0
2017-May-15 10:30N 38°02' E 023°32'1 2.9
2017-May-15 10:00N 38°02' E 023°34'1 2.5
2017-May-15 09:30N 38°02' E 023°35'0 0.0
2017-May-15 09:00N 38°02' E 023°35'0 0.0
2017-May-15 08:29N 38°02' E 023°35'0 0.0
2017-May-15 07:56N 38°02' E 023°35'0 0.0
2017-May-15 07:30N 38°02' E 023°35'  

Dump ship's entire track history